Marmarth, North Dakota
Current Conditions -  °F | °C
As of 12:51 PM on Monday 22 Dec 2014 (Local Time) from KBHK Reporting Station
Light Snow Light Snow  
Wind Chill: 13°   Ceiling: 1200
Heat Index: 27°   Visibility: 1.5mi
Dew Point: 25°   Wind: 21mph
Humidity: 92%   Direction: 330°NNW
Pressure: 29.62"   Gusts: 28mph
Location:  46.3°N, 103.92°W
Report Text: KBHK 221951Z AUTO 33018G24KT 1 1/2SM -SN BR BKN012 OVC024 M03/M04 A2962 RMK AO2 PK WND 34033/1916 SLP052 P0000 T10281039
Loading
Personal Weather Stations






























Interactive Weather Map New forecast layout! Learn more

10-Day Weather Forecast

Advertisements
Track Severe Weather on mobile